Time;durP1;ratioP1;P1;durP2;ratioP2;P2;SDS_P1;SDS_P2;PMS_P1;PMS_P2;Temp;Humidity;BMP_temperature;BMP_pressure;BME280_temperature;BME280_humidity;BME280_pressure;Samples;Min_cycle;Max_cycle;Signal;HPM_P1;HPM_P2
2021/01/18 00:01:18;;;;;;;20.78;6.87;;;4.90;99.90;;;9.47;96.19;102257.70;1769286;71;24468;-79
2021/01/18 00:03:37;;;;;;;17.82;7.33;;;4.90;99.90;;;9.35;95.89;102259.82;1769640;71;24949;-81
2021/01/18 00:05:53;;;;;;;18.13;7.59;;;4.90;99.90;;;9.43;95.83;102258.00;1762550;72;24495;-80
2021/01/18 00:08:10;;;;;;;20.18;7.04;;;4.80;99.90;;;9.53;96.19;102259.23;1764239;71;24457;-75
2021/01/18 00:10:28;;;;;;;20.69;8.05;;;4.90;99.90;;;9.45;95.79;102253.75;1767664;71;24369;-80
2021/01/18 00:12:55;;;;;;;20.61;8.03;;;4.90;99.90;;;9.49;95.90;102250.82;1770635;71;24397;-79
2021/01/18 00:15:17;;;;;;;16.35;6.58;;;4.80;99.90;;;9.32;96.08;102251.50;1770462;71;24433;-81
2021/01/18 00:17:36;;;;;;;17.44;6.72;;;4.80;99.90;;;9.29;95.80;102250.50;1769964;71;24444;-78
2021/01/18 00:19:52;;;;;;;20.61;7.65;;;4.80;99.90;;;9.23;95.69;102252.47;1768602;71;24536;-79
2021/01/18 00:22:08;;;;;;;17.63;7.61;;;4.70;99.90;;;9.35;96.38;102242.92;1774861;71;24447;-78
2021/01/18 00:24:25;;;;;;;19.73;8.07;;;4.70;99.90;;;9.34;96.04;102251.56;1767454;72;25105;-78
2021/01/18 00:26:41;;;;;;;17.78;6.81;;;4.70;99.90;;;9.32;96.53;102248.91;1779904;71;25052;-79
2021/01/18 00:28:59;;;;;;;20.17;7.45;;;4.70;99.90;;;9.41;95.76;102248.34;1775950;71;24432;-81
2021/01/18 00:31:17;;;;;;;18.70;7.59;;;4.70;99.90;;;9.42;94.52;102251.00;1769253;71;24525;-80
2021/01/18 00:33:35;;;;;;;19.70;7.83;;;4.70;99.90;;;9.55;95.29;102247.17;1770109;70;24457;-79
2021/01/18 00:35:51;;;;;;;17.70;7.59;;;4.70;99.90;;;9.57;95.24;102243.79;1777082;70;24929;-76
2021/01/18 00:38:08;;;;;;;20.05;7.31;;;4.80;99.90;;;9.65;95.03;102244.95;1776831;71;24905;-81
2021/01/18 00:40:26;;;;;;;15.67;6.04;;;4.80;99.90;;;9.66;95.29;102246.72;1777531;71;24480;-78
2021/01/18 00:42:45;;;;;;;18.34;7.24;;;4.90;99.90;;;9.54;94.46;102245.38;1777558;71;24509;-81
2021/01/18 00:45:03;;;;;;;21.67;7.28;;;4.90;99.90;;;9.71;94.59;102238.67;1773815;71;24525;-79
2021/01/18 00:47:19;;;;;;;17.22;7.25;;;4.90;99.90;;;9.63;95.04;102248.31;1773456;71;24474;-78
2021/01/18 00:49:35;;;;;;;18.59;6.75;;;5.00;99.90;;;9.70;95.07;102247.31;1780589;70;24600;-78
2021/01/18 00:51:53;;;;;;;15.45;6.37;;;5.00;99.90;;;9.69;94.47;102247.26;1770038;71;24480;-82
2021/01/18 00:54:14;;;;;;;16.57;6.97;;;5.00;99.90;;;9.65;95.08;102234.55;1761734;72;25045;-76
2021/01/18 00:56:33;;;;;;;16.46;6.65;;;5.10;99.90;;;9.65;95.08;102231.06;1771696;70;24724;-80
2021/01/18 00:58:50;;;;;;;22.59;6.82;;;5.10;99.90;;;9.73;95.24;102230.92;1775177;70;24416;-75
2021/01/18 01:01:14;;;;;;;13.80;5.60;;;5.10;99.90;;;9.77;95.55;102230.22;1757379;71;24836;-78
2021/01/18 01:03:32;;;;;;;13.26;5.97;;;5.20;99.90;;;9.55;95.73;102227.67;1771862;71;24433;-76
2021/01/18 01:06:00;;;;;;;16.96;5.69;;;5.20;99.90;;;9.68;95.83;102233.36;1770295;71;24436;-79
2021/01/18 01:08:18;;;;;;;9.16;4.23;;;5.20;99.90;;;9.74;94.97;102227.48;1768598;71;24759;-75
2021/01/18 01:10:36;;;;;;;16.85;5.89;;;5.20;99.90;;;9.66;94.52;102225.91;1765906;71;24426;-80
2021/01/18 01:12:59;;;;;;;15.46;6.25;;;5.20;99.90;;;9.70;95.32;102227.81;1770390;71;24949;-76
2021/01/18 01:15:17;;;;;;;15.70;5.76;;;5.20;99.90;;;9.73;94.90;102219.22;1767611;71;24916;-79
2021/01/18 01:17:38;;;;;;;14.18;5.66;;;5.20;99.90;;;9.59;95.46;102213.94;1775166;71;24931;-79
2021/01/18 01:19:56;;;;;;;17.15;5.59;;;5.20;99.90;;;9.66;95.10;102219.41;1765450;71;24518;-79
2021/01/18 01:22:14;;;;;;;15.89;5.96;;;5.20;99.90;;;9.57;94.54;102208.69;1772951;71;24872;-78
2021/01/18 01:24:30;;;;;;;15.38;5.49;;;5.20;99.90;;;9.50;95.42;102204.52;1769027;71;24511;-78
2021/01/18 01:26:46;;;;;;;12.06;5.50;;;5.10;99.90;;;9.45;95.06;102199.55;1768430;71;24444;-79
2021/01/18 01:29:03;;;;;;;14.00;5.63;;;5.00;99.90;;;9.40;94.67;102201.98;1780012;71;24944;-80
2021/01/18 01:31:20;;;;;;;18.25;6.14;;;4.90;99.90;;;9.49;94.47;102193.22;1774606;70;24548;-79
2021/01/18 01:33:36;;;;;;;16.09;5.63;;;4.80;99.90;;;9.53;94.46;102189.88;1775645;71;24462;-80
2021/01/18 01:35:52;;;;;;;16.01;5.98;;;4.80;99.90;;;9.52;94.01;102195.92;1774488;71;24464;-79
2021/01/18 01:38:08;;;;;;;14.87;5.88;;;4.90;99.90;;;9.56;94.36;102191.73;1777539;71;25024;-80
2021/01/18 01:40:26;;;;;;;14.98;6.09;;;4.90;99.90;;;9.53;94.74;102196.82;1783566;70;24451;-82
2021/01/18 01:42:45;;;;;;;15.53;5.16;;;4.90;99.90;;;9.69;94.72;102203.91;1784786;70;24413;-76
2021/01/18 01:45:02;;;;;;;10.49;5.01;;;4.90;99.90;;;9.68;93.31;102203.86;1771304;71;24567;-81
2021/01/18 01:47:27;;;;;;;15.49;5.81;;;5.00;99.90;;;9.66;93.04;102201.64;1768259;71;24440;-78
2021/01/18 01:49:43;;;;;;;19.44;6.24;;;5.00;99.90;;;9.63;94.11;102198.50;1773187;71;24448;-81
2021/01/18 01:52:01;;;;;;;13.11;5.55;;;5.00;99.90;;;9.79;94.13;102196.91;1772921;71;24429;-80
2021/01/18 01:54:19;;;;;;;15.52;5.95;;;5.10;99.90;;;9.57;93.32;102196.98;1771179;71;24524;-81
2021/01/18 01:56:36;;;;;;;13.76;6.30;;;5.10;99.90;;;9.70;94.10;102193.10;1770500;71;24435;-80
2021/01/18 01:58:55;;;;;;;13.87;5.68;;;5.10;99.90;;;9.65;93.69;102197.25;1777369;71;24424;-75
2021/01/18 02:01:14;;;;;;;11.83;5.65;;;5.10;99.90;;;9.56;93.70;102191.33;1778007;71;24911;-79
2021/01/18 02:03:51;;;;;;;16.61;6.40;;;5.10;99.90;;;9.46;93.70;102191.81;1766254;71;24429;-80
2021/01/18 02:06:10;;;;;;;13.40;5.76;;;5.00;99.90;;;9.43;93.25;102198.20;1769705;70;24927;-78
2021/01/18 02:08:30;;;;;;;15.10;6.34;;;4.90;99.90;;;9.26;92.87;102195.41;1781059;71;24374;-81
2021/01/18 02:10:46;;;;;;;14.02;6.05;;;4.80;99.90;;;9.14;92.34;102197.52;1776900;71;24405;-79
2021/01/18 02:13:08;;;;;;;15.81;6.81;;;4.70;99.90;;;9.09;92.16;102204.25;1770821;71;24471;-78
2021/01/18 02:15:40;;;;;;;22.65;6.67;;;4.60;99.90;;;9.18;93.29;102197.69;1767285;71;24496;-79
2021/01/18 02:18:06;;;;;;;15.98;6.98;;;4.50;99.90;;;8.96;91.92;102206.80;1778159;70;24521;-79
2021/01/18 02:21:19;;;;;;;13.74;5.22;;;4.50;99.90;;;9.14;92.93;102204.02;1776514;71;24987;-76
2021/01/18 02:24:18;;;;;;;15.88;5.67;;;4.40;99.90;;;8.91;91.82;102198.37;1786409;70;24464;-79
2021/01/18 02:30:00;;;;;;;15.05;6.56;;;4.20;99.90;;;9.16;91.89;102201.07;1730995;72;25341;-76
2021/01/18 02:32:58;;;;;;;19.74;7.82;;;4.10;99.90;;;9.00;93.35;102208.70;1697411;75;24414;-81
2021/01/18 02:35:58;;;;;;;17.92;7.59;;;4.10;99.90;;;8.90;93.55;102208.27;1699833;75;24956;-77
2021/01/18 02:38:27;;;;;;;14.94;7.10;;;4.10;99.90;;;8.79;92.33;102212.16;1702155;75;24457;-81
2021/01/18 02:40:53;;;;;;;15.41;6.60;;;4.00;99.90;;;8.87;92.96;102215.94;1702215;75;24545;-75
2021/01/18 02:43:16;;;;;;;16.49;7.78;;;4.00;99.90;;;8.69;92.21;102210.04;1701681;75;24377;-79
2021/01/18 02:45:34;;;;;;;16.65;7.57;;;4.00;99.90;;;8.82;93.35;102217.50;1671476;76;25247;-79
2021/01/18 02:47:54;;;;;;;15.88;7.79;;;4.10;99.90;;;8.85;92.97;102222.81;1698730;75;24454;-81
2021/01/18 02:50:12;;;;;;;23.92;8.70;;;4.10;99.90;;;8.92;92.92;102217.91;1703402;74;24959;-79
2021/01/18 02:52:38;;;;;;;21.58;8.47;;;4.20;99.90;;;8.90;93.24;102219.55;1701762;75;24953;-81
2021/01/18 02:54:54;;;;;;;14.44;6.89;;;4.20;99.90;;;8.84;92.95;102215.42;1700715;75;25196;-80
2021/01/18 02:57:18;;;;;;;15.00;7.36;;;4.20;99.90;;;8.67;92.00;102210.38;1701172;75;25039;-80
2021/01/18 02:59:34;;;;;;;16.34;8.01;;;4.20;99.90;;;8.68;92.78;102214.34;1693967;73;24495;-75
2021/01/18 03:05:25;;;;;;;19.32;8.20;;;4.10;99.90;;;8.77;93.16;102204.73;1733896;72;25228;-77
2021/01/18 03:07:53;;;;;;;14.48;7.50;;;4.10;99.90;;;8.71;93.93;102204.50;1698301;75;24479;-81
2021/01/18 03:10:19;;;;;;;17.83;8.07;;;4.00;99.90;;;8.60;92.51;102198.86;1696607;75;24485;-79
2021/01/18 03:12:45;;;;;;;17.75;8.00;;;4.00;99.90;;;8.53;92.61;102199.46;1695648;75;25032;-77
2021/01/18 03:15:03;;;;;;;14.61;7.38;;;3.90;99.90;;;8.69;93.34;102207.01;1696716;73;24968;-79
2021/01/18 03:17:24;;;;;;;20.21;8.91;;;3.90;99.90;;;8.59;92.94;102198.41;1700544;75;24460;-77
2021/01/18 03:19:45;;;;;;;12.60;5.87;;;3.90;99.90;;;8.68;93.74;102205.25;1699935;75;24503;-79
2021/01/18 03:22:04;;;;;;;17.70;6.87;;;3.90;99.90;;;8.43;92.15;102199.01;1674917;75;24547;-76
2021/01/18 03:24:26;;;;;;;18.93;8.50;;;3.90;99.90;;;8.36;92.11;102195.27;1699744;75;24365;-81
2021/01/18 03:26:42;;;;;;;18.46;7.48;;;3.90;99.90;;;8.52;94.30;102201.56;1706924;75;24437;-81
2021/01/18 03:29:00;;;;;;;14.88;6.40;;;3.90;99.90;;;8.49;93.74;102203.14;1700275;75;24473;-80
2021/01/18 03:31:18;;;;;;;20.48;8.90;;;3.80;99.90;;;8.30;93.43;102199.35;1703498;75;24877;-81
2021/01/18 03:33:35;;;;;;;18.24;8.44;;;3.80;99.90;;;8.43;93.86;102198.61;1697185;75;24513;-79
2021/01/18 03:35:53;;;;;;;14.23;6.86;;;3.90;99.90;;;8.35;93.46;102197.80;1700320;75;24467;-76
2021/01/18 03:38:10;;;;;;;19.09;8.71;;;3.80;99.90;;;8.17;92.87;102200.49;1697560;75;24541;-79
2021/01/18 03:40:30;;;;;;;15.62;8.77;;;3.80;99.90;;;8.45;93.59;102192.17;1703120;75;24391;-78
2021/01/18 03:42:47;;;;;;;20.05;8.85;;;3.80;99.90;;;8.42;93.87;102199.84;1698601;75;24782;-80
2021/01/18 03:45:05;;;;;;;16.79;8.37;;;3.80;99.90;;;8.35;94.11;102200.41;1698712;74;24475;-74
2021/01/18 03:47:22;;;;;;;23.76;7.86;;;3.80;99.90;;;8.32;93.21;102195.98;1699330;75;24488;-79
2021/01/18 03:49:40;;;;;;;17.27;7.04;;;3.70;99.90;;;8.26;93.21;102189.66;1697739;75;24591;-79
2021/01/18 03:51:56;;;;;;;18.98;9.95;;;3.70;99.90;;;8.11;92.73;102191.59;1703169;75;24499;-79
2021/01/18 03:54:13;;;;;;;15.47;7.56;;;3.70;99.90;;;8.33;94.08;102190.39;1699272;74;24513;-75
2021/01/18 03:56:32;;;;;;;17.01;7.58;;;3.70;99.90;;;8.09;92.66;102185.05;1692323;75;24994;-81
2021/01/18 03:58:49;;;;;;;20.08;10.80;;;3.70;99.90;;;8.17;93.05;102180.17;1702724;75;24449;-80
2021/01/18 04:01:06;;;;;;;21.41;10.81;;;3.70;99.90;;;8.30;94.38;102172.11;1701435;73;24436;-81
2021/01/18 04:03:23;;;;;;;26.90;11.30;;;3.70;99.90;;;8.39;93.97;102175.96;1700651;75;24481;-80
2021/01/18 04:05:39;;;;;;;22.78;10.95;;;3.70;99.90;;;8.46;93.55;102178.36;1704435;75;24515;-78
2021/01/18 04:07:56;;;;;;;19.05;8.84;;;3.80;99.90;;;8.46;93.57;102184.85;1702109;75;24500;-78
2021/01/18 04:10:17;;;;;;;21.13;10.23;;;3.80;99.90;;;8.51;93.98;102183.33;1699350;75;24697;-80
2021/01/18 04:12:33;;;;;;;20.38;10.13;;;4.00;99.90;;;8.67;94.66;102174.03;1699473;75;24511;-80
2021/01/18 04:14:50;;;;;;;24.53;11.38;;;4.00;99.90;;;8.57;93.97;102173.19;1701540;75;24489;-78
2021/01/18 04:17:06;;;;;;;17.43;8.40;;;4.10;99.90;;;8.54;93.92;102171.37;1707134;73;24801;-77
2021/01/18 04:19:23;;;;;;;18.31;9.64;;;4.10;99.90;;;8.35;94.15;102167.96;1703735;75;24440;-80
2021/01/18 04:21:43;;;;;;;22.82;10.68;;;4.00;99.90;;;8.34;94.07;102164.91;1699505;75;24449;-79
2021/01/18 04:24:01;;;;;;;20.38;10.35;;;4.00;99.90;;;8.46;94.01;102171.88;1700535;75;24424;-81
2021/01/18 04:26:24;;;;;;;23.02;10.57;;;3.90;99.90;;;8.40;93.67;102172.93;1700637;75;25010;-80
2021/01/18 04:28:43;;;;;;;21.00;11.65;;;3.90;99.90;;;8.30;93.13;102170.81;1701318;75;24942;-77
2021/01/18 04:31:04;;;;;;;29.37;12.60;;;3.70;99.90;;;8.41;93.46;102162.61;1701159;73;24514;-81
2021/01/18 04:33:29;;;;;;;24.84;12.04;;;3.80;99.90;;;8.52;94.54;102163.06;1710686;75;24530;-79
2021/01/18 04:35:48;;;;;;;27.45;11.45;;;3.80;99.90;;;8.30;93.35;102159.99;1700974;74;24875;-78
2021/01/18 04:38:07;;;;;;;31.13;12.20;;;3.80;99.90;;;8.49;94.16;102162.50;1697091;75;24957;-80
2021/01/18 04:40:27;;;;;;;27.41;12.93;;;3.80;99.90;;;8.49;93.63;102157.72;1678779;75;24472;-79
2021/01/18 04:42:45;;;;;;;24.27;11.15;;;3.80;99.90;;;8.56;94.09;102154.15;1697583;75;24488;-80
2021/01/18 04:45:02;;;;;;;21.86;10.32;;;3.80;99.90;;;8.52;93.20;102154.84;1701572;75;24427;-79
2021/01/18 04:47:19;;;;;;;23.40;11.75;;;3.80;99.90;;;8.41;93.32;102157.42;1706954;73;24886;-80
2021/01/18 04:49:43;;;;;;;28.52;13.87;;;3.80;99.90;;;8.45;93.65;102165.82;1696550;75;24379;-78
2021/01/18 04:52:01;;;;;;;16.04;9.27;;;3.80;99.90;;;8.52;93.96;102157.43;1701170;75;24554;-78
2021/01/18 04:54:23;;;;;;;19.27;10.36;;;3.80;99.90;;;8.38;93.00;102159.00;1700106;75;24545;-79
2021/01/18 04:56:53;;;;;;;33.88;13.41;;;3.80;99.90;;;8.36;93.14;102156.34;1698624;75;24437;-79
2021/01/18 04:59:15;;;;;;;22.26;12.24;;;3.80;99.90;;;8.57;93.85;102166.30;1699808;75;24899;-79
2021/01/18 05:01:37;;;;;;;23.08;11.36;;;3.80;99.90;;;8.48;93.13;102155.95;1701626;75;24446;-81
2021/01/18 05:04:02;;;;;;;20.76;10.50;;;3.80;99.90;;;8.45;93.18;102163.22;1701309;73;24536;-81
2021/01/18 05:07:00;;;;;;;27.56;13.64;;;3.80;99.90;;;8.31;93.29;102157.89;1711466;74;24517;-78
2021/01/18 05:09:35;;;;;;;28.31;15.06;;;3.80;99.90;;;8.49;94.13;102161.20;1708276;74;24449;-79
2021/01/18 05:11:52;;;;;;;25.88;13.50;;;3.80;99.90;;;8.69;94.83;102158.11;1700514;74;24570;-77
2021/01/18 05:14:09;;;;;;;30.79;14.23;;;3.80;99.90;;;8.73;94.46;102151.79;1709979;74;24578;-79
2021/01/18 05:16:31;;;;;;;27.10;13.88;;;3.90;99.90;;;8.68;94.04;102162.81;1706363;74;24461;-79
2021/01/18 05:18:50;;;;;;;32.32;14.67;;;3.90;99.90;;;8.62;94.03;102155.68;1704115;74;24480;-79
2021/01/18 05:21:09;;;;;;;27.56;14.71;;;3.90;99.90;;;8.76;94.28;102149.31;1703350;74;24451;-81
2021/01/18 05:23:27;;;;;;;19.89;12.07;;;3.90;99.90;;;8.68;93.63;102148.13;1702919;74;24948;-79
2021/01/18 05:25:43;;;;;;;23.68;13.30;;;3.90;99.90;;;8.60;93.15;102153.43;1708804;74;24994;-80
2021/01/18 05:28:07;;;;;;;31.50;14.96;;;3.90;99.90;;;8.74;93.32;102141.86;1704815;74;24879;-79
2021/01/18 05:30:28;;;;;;;30.54;15.55;;;3.90;99.90;;;8.71;93.69;102135.69;1707101;74;24955;-81
2021/01/18 05:32:44;;;;;;;23.20;13.01;;;3.90;99.90;;;8.64;93.96;102140.16;1709246;74;24562;-80
2021/01/18 05:35:20;;;;;;;23.30;11.61;;;3.90;99.90;;;8.60;93.27;102146.94;1704620;74;24420;-81
2021/01/18 05:37:40;;;;;;;17.14;9.15;;;3.90;99.90;;;8.50;93.37;102148.72;1704304;74;24512;-82
2021/01/18 05:39:56;;;;;;;22.13;12.00;;;3.90;99.90;;;8.48;93.63;102145.17;1708532;74;24459;-80
2021/01/18 05:42:23;;;;;;;28.95;14.84;;;3.90;99.90;;;8.54;93.62;102148.00;1663392;77;24441;-79
2021/01/18 05:44:40;;;;;;;23.59;11.24;;;3.90;99.90;;;8.62;93.82;102145.30;1664007;76;24907;-81
2021/01/18 05:47:03;;;;;;;28.56;15.62;;;3.80;99.90;;;8.61;93.45;102145.23;1667939;76;24459;-81
2021/01/18 05:49:22;;;;;;;16.00;10.08;;;3.80;99.90;;;8.57;93.28;102144.23;1663006;76;24890;-79
2021/01/18 05:51:41;;;;;;;30.74;14.92;;;3.80;99.90;;;8.46;93.40;102149.81;1662656;76;24470;-81
2021/01/18 05:54:01;;;;;;;25.32;13.45;;;3.80;99.90;;;8.69;93.87;102139.50;1716940;74;24872;-78
2021/01/18 05:56:22;;;;;;;26.30;13.95;;;3.80;99.90;;;8.52;92.90;102143.59;1711744;74;24432;-81
2021/01/18 05:58:41;;;;;;;18.96;9.89;;;3.80;99.90;;;8.63;92.87;102135.81;1710064;74;24890;-83
2021/01/18 06:00:58;;;;;;;15.70;9.17;;;3.80;99.90;;;8.42;92.81;102140.15;1709032;74;24602;-80
2021/01/18 06:03:20;;;;;;;29.34;15.26;;;3.80;99.90;;;8.61;92.71;102140.05;1705125;74;24472;-81
2021/01/18 06:05:43;;;;;;;31.36;15.58;;;3.80;99.90;;;8.66;93.27;102143.71;1702443;74;24369;-80
2021/01/18 06:08:14;;;;;;;28.42;16.79;;;3.80;99.90;;;8.69;93.82;102145.13;1685583;75;24493;-78
2021/01/18 06:10:37;;;;;;;34.11;17.48;;;3.80;99.90;;;8.81;94.60;102150.38;1696760;75;24457;-79
2021/01/18 06:12:54;;;;;;;24.50;14.73;;;3.80;99.90;;;8.66;94.55;102142.41;1693212;75;24590;-78
2021/01/18 06:15:16;;;;;;;33.66;17.13;;;3.80;99.90;;;8.56;93.84;102138.98;1686695;75;24856;-80
2021/01/18 06:17:34;;;;;;;31.74;15.54;;;3.80;99.90;;;8.70;94.06;102135.20;1688804;74;24479;-79
2021/01/18 06:19:54;;;;;;;29.41;15.22;;;3.90;99.90;;;8.80;92.93;102138.63;1689600;75;24441;-77
2021/01/18 06:22:17;;;;;;;30.11;14.43;;;3.80;99.90;;;8.72;92.56;102138.34;1686081;75;24445;-81
2021/01/18 06:24:34;;;;;;;34.23;17.40;;;3.90;99.90;;;8.86;93.33;102149.25;1686815;75;24532;-79
2021/01/18 06:26:51;;;;;;;36.16;18.37;;;3.90;99.90;;;8.99;93.61;102142.40;1690536;75;24443;-78
2021/01/18 06:29:07;;;;;;;33.30;15.88;;;4.00;99.90;;;9.00;93.06;102139.86;1693842;75;24485;-78
2021/01/18 06:31:28;;;;;;;20.87;9.61;;;4.00;99.90;;;8.93;93.21;102136.55;1698716;75;25143;-80
2021/01/18 06:33:46;;;;;;;30.22;16.65;;;4.00;99.90;;;8.69;92.64;102125.66;1695808;75;24499;-82
2021/01/18 06:36:15;;;;;;;34.29;16.94;;;4.00;99.90;;;8.81;93.54;102139.98;1693422;75;25006;-82
2021/01/18 06:38:35;;;;;;;20.24;11.65;;;4.00;99.90;;;8.85;93.53;102137.10;1688869;75;24513;-80
2021/01/18 06:41:01;;;;;;;19.79;11.40;;;4.00;99.90;;;8.70;92.88;102137.39;1688433;75;24438;-81
2021/01/18 06:43:21;;;;;;;22.42;12.06;;;4.00;99.90;;;8.76;93.27;102132.83;1686279;75;24565;-83
2021/01/18 06:45:41;;;;;;;26.90;13.29;;;4.00;99.90;;;8.74;93.17;102124.98;1689408;75;24503;-81
2021/01/18 06:48:00;;;;;;;26.50;15.02;;;4.00;99.90;;;8.80;93.20;102124.34;1689282;75;24477;-82
2021/01/18 06:50:20;;;;;;;26.88;13.86;;;4.00;99.90;;;8.77;93.02;102124.23;1688807;75;24520;-79
2021/01/18 06:52:43;;;;;;;19.05;10.13;;;4.00;99.90;;;8.82;93.04;102123.56;1693004;75;24458;-81
2021/01/18 06:55:10;;;;;;;19.91;10.23;;;4.00;99.90;;;8.88;92.86;102120.33;1688768;75;25169;-80
2021/01/18 06:57:58;;;;;;;22.70;12.32;;;4.00;99.90;;;8.80;92.79;102132.14;1690720;75;24436;-79
2021/01/18 07:00:18;;;;;;;22.51;11.89;;;4.00;99.90;;;8.87;92.62;102125.03;1685359;75;24580;-77
2021/01/18 07:02:40;;;;;;;21.64;12.22;;;4.00;99.90;;;8.85;92.78;102126.27;1690527;75;24445;-78
2021/01/18 07:05:08;;;;;;;31.37;17.72;;;4.00;99.90;;;8.84;92.64;102125.81;1692029;75;24575;-80
2021/01/18 07:07:32;;;;;;;33.65;17.02;;;4.00;99.90;;;8.98;92.67;102131.11;1684861;75;24544;-79
2021/01/18 07:09:59;;;;;;;28.72;16.10;;;4.00;99.90;;;8.96;92.16;102123.67;1648164;77;24457;-80
2021/01/18 07:12:21;;;;;;;25.79;16.18;;;4.00;99.90;;;8.95;92.15;102118.02;1689313;75;24393;-80
2021/01/18 07:14:40;;;;;;;30.49;15.13;;;4.00;99.90;;;8.99;92.17;102114.69;1689546;75;24432;-80
2021/01/18 07:17:01;;;;;;;17.78;9.93;;;4.00;99.90;;;8.84;92.30;102121.03;1689174;75;24456;-78
2021/01/18 07:19:26;;;;;;;28.97;16.92;;;4.00;99.90;;;8.62;92.90;102113.25;1682411;75;24469;-81
2021/01/18 07:21:51;;;;;;;24.83;12.90;;;4.00;99.90;;;9.00;93.04;102115.17;1692204;75;24543;-79
2021/01/18 07:24:15;;;;;;;29.00;16.62;;;4.00;99.90;;;8.83;92.76;102117.56;1682947;75;24520;-79
2021/01/18 07:26:56;;;;;;;29.80;15.99;;;4.00;99.90;;;8.84;92.87;102122.33;1690486;75;24453;-80
2021/01/18 07:29:15;;;;;;;32.02;16.08;;;4.00;99.90;;;8.86;92.83;102122.88;1692793;75;24450;-75
2021/01/18 07:31:38;;;;;;;24.72;12.80;;;4.10;99.90;;;8.94;92.91;102120.16;1686000;73;24430;-72
2021/01/18 07:34:01;;;;;;;32.82;17.23;;;4.10;99.90;;;8.82;93.21;102130.06;1688333;75;24505;-71
2021/01/18 07:36:29;;;;;;;27.62;15.75;;;4.10;99.90;;;8.94;93.04;102127.05;1688733;74;24432;-73
2021/01/18 07:38:45;;;;;;;28.55;14.72;;;4.10;99.90;;;8.88;92.86;102129.42;1692454;74;24934;-74
2021/01/18 07:41:20;;;;;;;29.74;13.67;;;4.10;99.90;;;8.80;93.68;102132.14;1693170;75;24500;-72
2021/01/18 07:43:41;;;;;;;30.22;15.28;;;4.10;99.90;;;8.82;93.73;102129.20;1687442;75;24506;-73
2021/01/18 07:46:12;;;;;;;33.84;16.27;;;4.10;99.90;;;9.03;93.52;102128.27;1691163;73;24441;-71
2021/01/18 07:48:32;;;;;;;24.14;11.78;;;4.20;99.90;;;8.98;93.52;102132.81;1687394;75;24360;-72
2021/01/18 07:50:51;;;;;;;33.79;16.61;;;4.20;99.90;;;8.87;94.06;102138.02;1685232;75;24453;-72
2021/01/18 07:53:10;;;;;;;28.04;16.57;;;4.20;99.90;;;9.06;93.60;102137.88;1696715;73;24468;-72
2021/01/18 07:55:27;;;;;;;31.14;16.67;;;4.20;99.90;;;9.11;93.50;102137.64;1692193;73;24932;-74
2021/01/18 07:57:45;;;;;;;36.07;19.73;;;4.30;99.90;;;8.98;93.72;102131.52;1690056;74;24490;-71
2021/01/18 08:00:33;;;;;;;32.37;18.81;;;4.30;99.90;;;9.11;93.60;102137.24;1698096;74;24518;-73
2021/01/18 08:02:57;;;;;;;31.90;19.18;;;4.30;99.90;;;9.16;93.36;102143.50;1703690;73;25514;-74
2021/01/18 08:05:29;;;;;;;20.96;11.90;;;4.40;99.90;;;9.11;93.65;102145.04;1690791;73;24920;-71
2021/01/18 08:08:08;;;;;;;28.58;16.45;;;4.40;99.90;;;8.89;94.07;102141.57;1710018;73;24450;-72
2021/01/18 08:10:25;;;;;;;35.01;19.38;;;4.40;99.90;;;9.06;93.91;102144.38;1693975;74;25226;-72
2021/01/18 08:12:43;;;;;;;35.10;20.17;;;4.40;99.90;;;9.26;93.55;102148.62;1697075;74;25116;-73
2021/01/18 08:15:06;;;;;;;26.53;14.53;;;4.40;99.90;;;9.26;93.29;102149.92;1703126;74;24508;-72
2021/01/18 08:17:23;;;;;;;30.61;17.96;;;4.40;99.90;;;8.95;94.06;102154.38;1703657;74;24478;-75
2021/01/18 08:19:42;;;;;;;30.83;18.96;;;4.40;99.90;;;9.21;94.16;102143.66;1706153;74;24500;-70
2021/01/18 08:22:11;;;;;;;31.37;18.60;;;4.50;99.90;;;9.31;93.78;102143.14;1700808;74;24948;-72
2021/01/18 08:24:54;;;;;;;32.36;17.38;;;4.50;99.90;;;9.28;93.87;102143.04;1704188;73;24898;-72
2021/01/18 08:27:13;;;;;;;25.70;16.70;;;4.50;99.90;;;9.42;93.12;102143.55;1699896;73;24410;-71
2021/01/18 08:29:41;;;;;;;18.80;12.94;;;4.50;99.90;;;9.36;92.99;102150.70;1708264;73;24514;-74
2021/01/18 08:32:39;;;;;;;21.88;11.98;;;4.50;99.90;;;9.25;93.12;102144.23;1714831;73;24529;-73
2021/01/18 08:35:00;;;;;;;31.00;16.92;;;4.50;99.90;;;9.26;93.53;102145.13;1684291;74;25185;-73
2021/01/18 08:37:20;;;;;;;34.40;15.73;;;4.60;99.90;;;9.43;93.60;102143.61;1706491;73;24524;-73
2021/01/18 08:39:41;;;;;;;25.92;16.04;;;4.60;99.90;;;9.47;93.33;102144.17;1704790;74;24977;-72
2021/01/18 08:42:02;;;;;;;19.90;13.29;;;4.60;99.90;;;9.44;93.50;102146.66;1704971;73;24524;-73
2021/01/18 08:44:30;;;;;;;31.14;15.97;;;4.60;99.90;;;9.37;92.98;102153.79;1677783;74;24482;-71
2021/01/18 08:46:47;;;;;;;27.28;16.18;;;4.70;99.90;;;9.59;93.73;102148.52;1705320;74;24488;-72
2021/01/18 08:51:52;;;;;;;30.11;15.03;;;4.70;99.90;;;9.79;92.78;102155.70;1733232;72;25245;-71
2021/01/18 08:54:10;;;;;;;23.71;14.55;;;4.80;99.90;;;9.75;92.43;102156.03;1681517;75;24608;-73
2021/01/18 08:56:39;;;;;;;27.73;14.87;;;4.80;99.90;;;9.60;92.41;102155.48;1688897;75;24598;-72
2021/01/18 08:58:57;;;;;;;20.01;11.97;;;4.80;99.90;;;9.69;93.12;102159.70;1688146;73;24542;-73
2021/01/18 09:01:26;;;;;;;18.80;12.69;;;4.90;99.90;;;9.75;92.78;102161.23;1692354;74;24373;-73
2021/01/18 09:03:45;;;;;;;22.25;10.17;;;5.00;99.90;;;9.73;93.05;102155.09;1688213;74;24981;-75
2021/01/18 09:06:03;;;;;;;27.79;14.25;;;5.00;99.90;;;9.67;94.05;102150.98;1690078;73;24498;-73
2021/01/18 09:08:23;;;;;;;27.91;16.02;;;5.00;99.90;;;9.71;93.64;102154.14;1687125;75;24843;-72
2021/01/18 09:10:41;;;;;;;22.58;12.50;;;5.10;99.90;;;9.98;93.84;102145.98;1688876;74;24511;-72
2021/01/18 09:13:06;;;;;;;27.07;15.85;;;5.20;99.90;;;9.87;93.96;102160.34;1687551;75;24993;-74
2021/01/18 09:15:24;;;;;;;24.14;14.96;;;5.30;99.90;;;10.07;93.12;102151.52;1690050;73;24575;-76
2021/01/18 09:17:43;;;;;;;26.89;15.67;;;5.40;99.90;;;9.94;93.87;102144.09;1679341;75;24628;-73
2021/01/18 09:20:01;;;;;;;23.27;14.80;;;5.40;99.90;;;10.22;93.98;102143.34;1687287;73;24487;-75
2021/01/18 09:22:20;;;;;;;20.17;12.21;;;5.50;99.90;;;10.18;92.57;102150.59;1689379;75;24927;-74
2021/01/18 09:24:41;;;;;;;20.66;11.80;;;5.50;99.90;;;9.89;93.67;102142.19;1685432;75;24517;-72
2021/01/18 09:27:02;;;;;;;22.99;12.82;;;5.50;99.90;;;9.86;93.80;102141.68;1693074;74;25033;-73
2021/01/18 09:29:27;;;;;;;24.14;15.39;;;5.50;99.90;;;9.79;93.87;102132.28;1689556;75;24477;-72
2021/01/18 09:31:48;;;;;;;24.37;15.47;;;5.50;99.90;;;10.10;93.52;102125.59;1688999;75;24465;-74
2021/01/18 09:34:17;;;;;;;17.18;11.00;;;5.50;99.90;;;10.19;92.69;102131.52;1685439;75;24487;-74
2021/01/18 09:36:56;;;;;;;22.52;12.04;;;5.50;99.90;;;9.99;92.16;102123.45;1687050;75;25095;-75
2021/01/18 09:39:32;;;;;;;25.99;13.77;;;5.50;99.90;;;9.95;92.41;102123.77;1690329;74;24519;-74
2021/01/18 09:42:01;;;;;;;21.20;13.81;;;5.50;99.90;;;10.15;92.69;102131.84;1688021;75;25095;-75
2021/01/18 09:44:27;;;;;;;29.11;13.89;;;5.50;99.90;;;9.99;92.04;102142.53;1683318;75;24766;-78
2021/01/18 09:46:54;;;;;;;24.27;14.65;;;5.50;99.90;;;10.04;91.90;102138.37;1690244;73;25264;-73
2021/01/18 09:49:12;;;;;;;18.71;10.84;;;5.50;99.90;;;10.09;91.16;102126.44;1687709;73;24497;-73
2021/01/18 09:51:30;;;;;;;23.46;12.50;;;5.50;99.90;;;10.06;92.71;102128.02;1690702;74;24597;-72
2021/01/18 09:53:48;;;;;;;24.42;14.11;;;5.50;99.90;;;9.98;91.84;102130.37;1689568;73;24466;-72
2021/01/18 09:56:12;;;;;;;22.43;11.59;;;5.50;99.90;;;10.05;91.42;102127.12;1696265;74;24510;-74
2021/01/18 09:58:38;;;;;;;24.80;15.53;;;5.50;99.90;;;9.94;91.92;102123.27;1687907;74;24521;-71
2021/01/18 10:00:58;;;;;;;28.84;16.84;;;5.50;99.90;;;10.17;91.33;102119.77;1701001;75;24463;-74
2021/01/18 10:03:26;;;;;;;24.34;14.50;;;5.60;99.90;;;10.25;91.23;102124.80;1693827;75;24523;-73